Time;durP1;ratioP1;P1;durP2;ratioP2;P2;SDS_P1;SDS_P2;PMS_P1;PMS_P2;Temp;Humidity;BMP_temperature;BMP_pressure;BME280_temperature;BME280_humidity;BME280_pressure;Samples;Min_cycle;Max_cycle;Signal;HPM_P1;HPM_P2
2021/07/19 00:02:17;;;;;;;9.55;4.20;;;;;;;19.55;69.87;102182.00;5075277;28;20472;-56
2021/07/19 00:04:46;;;;;;;11.40;4.32;;;;;;;19.51;70.28;102180.97;5075467;28;20036;-58
2021/07/19 00:07:14;;;;;;;9.98;4.55;;;;;;;19.56;70.18;102172.59;5075381;28;20045;-56
2021/07/19 00:09:44;;;;;;;8.98;4.40;;;;;;;19.59;70.01;102172.00;5075264;28;20092;-56
2021/07/19 00:12:16;;;;;;;9.25;4.55;;;;;;;19.66;69.60;102177.16;5074961;28;20119;-58
2021/07/19 00:14:45;;;;;;;8.02;4.22;;;;;;;19.68;69.48;102174.97;5074399;28;20067;-57
2021/07/19 00:17:15;;;;;;;8.45;4.47;;;;;;;19.70;69.32;102178.22;5075102;28;20067;-57
2021/07/19 00:19:42;;;;;;;8.30;4.65;;;;;;;19.73;68.90;102172.94;5074750;28;20049;-58
2021/07/19 00:22:10;;;;;;;7.25;3.85;;;;;;;19.63;68.83;102175.00;5074845;28;20080;-58
2021/07/19 00:24:38;;;;;;;8.93;4.15;;;;;;;19.39;69.69;102177.78;5073769;28;20051;-54
2021/07/19 00:27:05;;;;;;;9.85;4.03;;;;;;;19.29;70.36;102175.94;5074809;28;20044;-58
2021/07/19 00:29:33;;;;;;;11.15;4.32;;;;;;;19.27;70.14;102176.25;5074034;28;20045;-58
2021/07/19 00:32:01;;;;;;;8.50;4.20;;;;;;;19.25;70.03;102172.16;5074833;28;20486;-58
2021/07/19 00:34:29;;;;;;;9.60;3.92;;;;;;;19.24;69.87;102176.84;5074575;28;20048;-57
2021/07/19 00:36:56;;;;;;;8.10;4.20;;;;;;;19.17;69.68;102176.38;5074629;28;20056;-53
2021/07/19 00:39:27;;;;;;;8.27;4.13;;;;;;;18.95;69.97;102179.63;5074280;28;20051;-52
2021/07/19 00:41:55;;;;;;;10.35;4.35;;;;;;;18.91;70.16;102181.34;5056368;28;20040;-52
2021/07/19 00:44:23;;;;;;;7.68;3.85;;;;;;;18.91;70.15;102184.09;5073940;28;20037;-53
2021/07/19 00:46:52;;;;;;;10.50;4.07;;;;;;;18.93;70.12;102188.22;5056697;28;20051;-53
2021/07/19 00:49:22;;;;;;;7.63;4.03;;;;;;;19.01;69.70;102178.47;5074367;28;20052;-53
2021/07/19 00:51:53;;;;;;;7.30;3.75;;;;;;;18.94;69.48;102172.47;5056503;28;20041;-58
2021/07/19 00:54:22;;;;;;;7.43;4.20;;;;;;;18.88;69.74;102176.38;5056075;28;20064;-52
2021/07/19 00:56:53;;;;;;;13.63;3.95;;;;;;;18.79;69.91;102173.44;5055913;28;20044;-55
2021/07/19 00:59:23;;;;;;;8.43;3.70;;;;;;;18.90;69.98;102171.38;5073967;28;20764;-57
2021/07/19 01:01:54;;;;;;;8.98;3.97;;;;;;;19.00;69.02;102182.34;5055842;28;20041;-52
2021/07/19 01:04:25;;;;;;;7.30;3.83;;;;;;;18.92;69.12;102174.69;5056252;28;20053;-56
2021/07/19 01:06:58;;;;;;;10.18;4.47;;;;;;;18.83;69.63;102179.19;5056078;28;20040;-56
2021/07/19 01:09:30;;;;;;;8.98;3.83;;;;;;;18.92;69.63;102181.03;5073967;28;20045;-55
2021/07/19 01:11:59;;;;;;;7.63;3.70;;;;;;;19.03;68.93;102170.72;5055939;28;20040;-53
2021/07/19 01:14:28;;;;;;;6.95;3.80;;;;;;;19.05;68.37;102162.97;5056134;28;22058;-57
2021/07/19 01:16:56;;;;;;;8.95;4.20;;;;;;;19.08;68.73;102172.59;5073213;28;20083;-56
2021/07/19 01:19:30;;;;;;;8.60;4.18;;;;;;;19.10;68.18;102175.91;5073679;28;20481;-55
2021/07/19 01:22:17;;;;;;;8.63;4.10;;;;;;;19.05;68.55;102174.00;5039276;28;20088;-59
2021/07/19 01:24:56;;;;;;;7.95;4.03;;;;;;;18.95;68.63;102176.88;5039402;28;20495;-57
2021/07/19 01:27:27;;;;;;;8.85;4.30;;;;;;;18.90;68.71;102169.44;5055209;28;20124;-57
2021/07/19 01:29:58;;;;;;;7.88;4.07;;;;;;;18.85;69.23;102182.50;5055852;28;20055;-57
2021/07/19 01:32:27;;;;;;;11.20;4.00;;;;;;;18.81;69.09;102173.97;5055662;28;20066;-57
2021/07/19 01:34:59;;;;;;;8.23;4.03;;;;;;;18.78;69.15;102182.00;5039285;28;20040;-58
2021/07/19 01:37:30;;;;;;;9.52;4.32;;;;;;;18.70;69.27;102173.22;5039218;28;20049;-54
2021/07/19 01:40:08;;;;;;;6.32;3.60;;;;;;;18.69;69.38;102168.00;5040288;28;20072;-57
2021/07/19 01:42:37;;;;;;;9.20;4.00;;;;;;;18.72;69.32;102162.69;5039012;28;20040;-56
2021/07/19 01:45:08;;;;;;;8.32;4.35;;;;;;;18.72;69.21;102154.41;5055125;28;20043;-57
2021/07/19 01:47:38;;;;;;;10.75;4.03;;;;;;;18.77;69.27;102152.75;5071862;28;20072;-56
2021/07/19 01:50:07;;;;;;;8.98;3.85;;;;;;;18.84;68.74;102150.47;5073102;28;20089;-57
2021/07/19 01:52:56;;;;;;;10.27;4.20;;;;;;;18.78;68.94;102140.59;5072743;28;20102;-57
2021/07/19 01:55:24;;;;;;;8.48;4.25;;;;;;;18.76;68.78;102142.78;5054938;28;20044;-57
2021/07/19 01:57:52;;;;;;;9.32;4.82;;;;;;;18.81;68.54;102140.84;5055139;28;20143;-56
2021/07/19 02:00:20;;;;;;;10.30;4.32;;;;;;;18.83;68.37;102143.28;5072748;28;20036;-57
2021/07/19 02:03:01;;;;;;;7.45;4.20;;;;;;;18.79;68.62;102140.31;5055157;28;20203;-57
2021/07/19 02:05:30;;;;;;;11.63;4.60;;;;;;;18.71;68.79;102141.72;5068710;28;20564;-56
2021/07/19 02:08:03;;;;;;;11.90;4.43;;;;;;;18.62;69.17;102137.94;5038917;28;20055;-58
2021/07/19 02:10:38;;;;;;;9.20;4.70;;;;;;;18.55;69.34;102142.97;5038959;28;20044;-56
2021/07/19 02:13:11;;;;;;;12.05;4.20;;;;;;;18.50;69.57;102145.78;5055900;28;20098;-56
2021/07/19 02:15:44;;;;;;;8.98;4.50;;;;;;;18.49;69.91;102144.94;5054438;28;20057;-57
2021/07/19 02:18:16;;;;;;;8.77;4.22;;;;;;;18.51;69.87;102151.00;5055461;28;20487;-51
2021/07/19 02:20:44;;;;;;;9.75;4.55;;;;;;;18.54;69.57;102146.84;5054566;28;20044;-57
2021/07/19 02:23:18;;;;;;;9.05;4.22;;;;;;;18.52;69.44;102143.56;5054441;28;20491;-56
2021/07/19 02:26:05;;;;;;;9.57;4.43;;;;;;;18.54;69.56;102146.84;5059577;28;20044;-56
2021/07/19 02:28:34;;;;;;;9.70;4.55;;;;;;;18.57;69.40;102145.44;5054895;28;20040;-57
2021/07/19 02:31:05;;;;;;;10.52;5.00;;;;;;;18.61;69.04;102141.81;5054961;28;20044;-56
2021/07/19 02:33:38;;;;;;;10.68;4.68;;;;;;;18.59;68.87;102149.59;5072284;28;20048;-57
2021/07/19 02:36:10;;;;;;;7.35;4.35;;;;;;;18.38;69.61;102159.16;5057569;28;20044;-56
2021/07/19 02:38:40;;;;;;;9.77;4.78;;;;;;;18.16;70.69;102160.41;5054455;28;20123;-56
2021/07/19 02:41:22;;;;;;;10.82;4.97;;;;;;;18.06;71.13;102158.53;5041480;28;20040;-56
2021/07/19 02:43:53;;;;;;;10.07;5.43;;;;;;;18.04;71.15;102148.91;5072405;28;20402;-56
2021/07/19 02:46:25;;;;;;;8.77;5.05;;;;;;;18.05;71.17;102156.06;5053937;28;20052;-56
2021/07/19 02:48:57;;;;;;;10.48;4.32;;;;;;;18.20;70.99;102150.44;5053731;28;20114;-57
2021/07/19 02:51:28;;;;;;;11.02;5.47;;;;;;;18.33;70.28;102146.22;5054193;28;20052;-57
2021/07/19 02:54:10;;;;;;;10.40;4.95;;;;;;;18.43;69.87;102145.31;5039072;28;20439;-57
2021/07/19 02:56:40;;;;;;;8.82;4.75;;;;;;;18.42;69.51;102155.50;5054120;28;20047;-56
2021/07/19 02:59:07;;;;;;;9.77;4.97;;;;;;;18.40;69.92;102148.63;5053346;28;20120;-56
2021/07/19 03:01:36;;;;;;;11.57;5.50;;;;;;;18.41;69.88;102153.03;5071920;28;20049;-57
2021/07/19 03:04:05;;;;;;;10.02;5.20;;;;;;;18.43;69.46;102157.16;5037912;28;20037;-57
2021/07/19 03:06:36;;;;;;;9.27;5.32;;;;;;;18.44;69.63;102163.50;5072124;28;20453;-56
2021/07/19 03:09:10;;;;;;;10.27;5.47;;;;;;;18.40;69.41;102163.25;5037355;28;20556;-57
2021/07/19 03:11:50;;;;;;;9.18;5.18;;;;;;;18.37;69.36;102157.47;5054030;28;20412;-56
2021/07/19 03:14:23;;;;;;;11.55;5.40;;;;;;;18.31;69.63;102156.72;5049834;28;20040;-55
2021/07/19 03:17:01;;;;;;;12.23;5.63;;;;;;;18.26;69.42;102157.56;5053848;28;20522;-57
2021/07/19 03:19:31;;;;;;;10.75;5.40;;;;;;;18.13;69.96;102168.41;5053856;28;20086;-57
2021/07/19 03:22:01;;;;;;;11.10;5.65;;;;;;;18.13;70.14;102166.47;5053582;28;20048;-56
2021/07/19 03:24:55;;;;;;;10.27;5.30;;;;;;;18.14;70.17;102165.38;5055950;28;20056;-56
2021/07/19 03:27:24;;;;;;;11.65;6.10;;;;;;;18.17;69.94;102164.81;5061031;28;20068;-56
2021/07/19 03:29:55;;;;;;;8.70;5.72;;;;;;;18.16;69.87;102165.06;5054441;28;20415;-56
2021/07/19 03:32:24;;;;;;;14.30;6.57;;;;;;;18.18;69.78;102160.91;5054335;28;20048;-56
2021/07/19 03:34:57;;;;;;;16.20;6.72;;;;;;;18.16;69.83;102157.66;5036700;28;20041;-55
2021/07/19 03:37:32;;;;;;;12.68;6.18;;;;;;;18.10;69.77;102158.78;5034172;28;20049;-57
2021/07/19 03:40:00;;;;;;;10.10;6.20;;;;;;;18.08;70.19;102163.75;5049500;28;20156;-56
2021/07/19 03:42:32;;;;;;;11.05;6.38;;;;;;;18.10;70.25;102158.78;5034496;28;20534;-55
2021/07/19 03:45:00;;;;;;;11.57;6.30;;;;;;;18.08;69.90;102158.25;5048414;28;20037;-57
2021/07/19 03:47:29;;;;;;;14.07;6.78;;;;;;;17.90;70.33;102156.16;5037735;28;20044;-57
2021/07/19 03:49:58;;;;;;;11.00;6.15;;;;;;;17.74;71.41;102160.91;5054039;28;20487;-57
2021/07/19 03:52:27;;;;;;;10.90;6.40;;;;;;;17.70;71.30;102165.31;5036925;28;20036;-56
2021/07/19 03:54:57;;;;;;;12.98;6.22;;;;;;;17.72;71.57;102155.66;5053377;28;20052;-57
2021/07/19 03:57:28;;;;;;;10.48;6.03;;;;;;;17.79;71.12;102164.44;5037631;28;20044;-56
2021/07/19 03:59:57;;;;;;;11.38;6.88;;;;;;;17.84;70.55;102164.44;5046637;28;20502;-57
2021/07/19 04:02:29;;;;;;;12.93;6.63;;;;;;;17.85;70.53;102157.84;5057978;28;20032;-56
2021/07/19 04:05:07;;;;;;;11.40;5.75;;;;;;;17.87;70.08;102172.16;5041027;28;20087;-57
2021/07/19 04:07:49;;;;;;;10.52;6.03;;;;;;;17.67;70.85;102162.03;5043129;28;20068;-56
2021/07/19 04:10:20;;;;;;;10.25;5.90;;;;;;;17.61;70.82;102163.16;5041056;28;20449;-56
2021/07/19 04:12:51;;;;;;;12.77;6.00;;;;;;;17.65;71.14;102178.03;5057311;28;20090;-57
2021/07/19 04:15:26;;;;;;;10.93;5.87;;;;;;;17.71;70.58;102173.31;5056945;28;20048;-56
2021/07/19 04:17:54;;;;;;;9.75;5.75;;;;;;;17.71;70.59;102176.06;5040587;28;20626;-58
2021/07/19 04:20:31;;;;;;;13.73;5.70;;;;;;;17.70;70.52;102174.41;5056827;28;20055;-56
2021/07/19 04:23:01;;;;;;;10.75;5.70;;;;;;;17.77;70.58;102174.94;5040547;28;20041;-56
2021/07/19 04:25:32;;;;;;;14.00;6.28;;;;;;;17.84;70.19;102178.22;5057083;28;20124;-57
2021/07/19 04:28:00;;;;;;;10.82;6.20;;;;;;;17.86;70.07;102176.03;5036644;28;20373;-57
2021/07/19 04:30:34;;;;;;;12.63;6.25;;;;;;;17.82;70.23;102188.75;5064423;28;20547;-54
2021/07/19 04:33:04;;;;;;;12.15;6.10;;;;;;;17.81;70.13;102184.31;5074601;28;20043;-53
2021/07/19 04:35:32;;;;;;;11.07;5.70;;;;;;;17.82;70.22;102177.72;5074033;28;20044;-57
2021/07/19 04:38:00;;;;;;;10.88;6.22;;;;;;;17.86;70.11;102175.19;5074146;28;20450;-56
2021/07/19 04:40:28;;;;;;;12.57;6.57;;;;;;;17.84;69.93;102175.47;5056237;28;20127;-57
2021/07/19 04:42:56;;;;;;;9.60;5.80;;;;;;;17.83;70.31;102171.09;5074209;28;20068;-56
2021/07/19 04:45:24;;;;;;;15.57;6.80;;;;;;;17.76;70.29;102175.22;5074140;28;20043;-57
2021/07/19 04:47:52;;;;;;;13.35;6.85;;;;;;;17.65;70.83;102180.81;5074354;28;20047;-56
2021/07/19 04:50:20;;;;;;;10.10;6.07;;;;;;;17.57;71.38;102183.31;5055839;28;20050;-57
2021/07/19 04:53:09;;;;;;;14.05;6.50;;;;;;;17.51;71.74;102189.94;5074023;28;20097;-56
2021/07/19 04:55:42;;;;;;;12.52;6.60;;;;;;;17.49;71.68;102186.66;5074493;28;20124;-58
2021/07/19 04:58:13;;;;;;;9.93;6.18;;;;;;;17.59;71.87;102197.63;5056461;28;20036;-57
2021/07/19 05:00:45;;;;;;;11.30;6.25;;;;;;;17.72;71.21;102188.75;5074101;28;20049;-55
2021/07/19 05:03:14;;;;;;;10.27;6.13;;;;;;;17.74;71.34;102194.81;5073946;28;20098;-57
2021/07/19 05:05:42;;;;;;;13.30;6.20;;;;;;;17.81;71.21;102186.25;5073546;28;20052;-57
2021/07/19 05:08:10;;;;;;;11.60;6.57;;;;;;;17.87;70.69;102187.88;5056023;28;20041;-57
2021/07/19 05:10:38;;;;;;;14.35;6.88;;;;;;;17.89;70.74;102185.66;5059414;28;20531;-57
2021/07/19 05:13:06;;;;;;;11.98;6.80;;;;;;;17.91;70.61;102180.69;5056254;28;20097;-57
2021/07/19 05:15:34;;;;;;;16.55;6.85;;;;;;;17.93;70.61;102172.97;5042856;28;20053;-52
2021/07/19 05:18:01;;;;;;;10.55;6.55;;;;;;;17.83;71.15;102184.06;5051270;28;20048;-57
2021/07/19 05:20:30;;;;;;;11.95;6.53;;;;;;;17.71;71.65;102186.28;5054966;28;20044;-57
2021/07/19 05:22:58;;;;;;;16.90;7.10;;;;;;;17.68;71.89;102179.41;5073354;28;20040;-57
2021/07/19 05:25:27;;;;;;;14.10;6.72;;;;;;;17.68;72.34;102185.75;5073575;28;20043;-56
2021/07/19 05:28:06;;;;;;;12.43;6.70;;;;;;;17.60;72.46;102188.25;5073543;28;20449;-57
2021/07/19 05:30:36;;;;;;;14.98;6.78;;;;;;;17.59;72.96;102192.13;5073578;28;20048;-57
2021/07/19 05:33:03;;;;;;;12.10;6.75;;;;;;;17.60;72.76;102194.59;5072924;28;20123;-56
2021/07/19 05:35:31;;;;;;;13.27;6.60;;;;;;;17.57;73.09;102188.81;5073428;28;20055;-56
2021/07/19 05:37:59;;;;;;;14.00;7.05;;;;;;;17.57;73.15;102188.81;5073084;28;20136;-56
2021/07/19 05:40:26;;;;;;;19.38;7.68;;;;;;;17.59;72.95;102195.69;5073444;28;20515;-56
2021/07/19 05:42:54;;;;;;;14.95;7.13;;;;;;;17.62;73.07;102197.88;5073067;28;20044;-56
2021/07/19 05:45:22;;;;;;;13.02;6.38;;;;;;;17.68;72.90;102199.53;5072916;28;20040;-56
2021/07/19 05:47:49;;;;;;;15.02;7.40;;;;;;;17.78;72.87;102197.84;5072692;28;20459;-58
2021/07/19 05:50:17;;;;;;;13.18;6.30;;;;;;;17.84;72.78;102204.97;5073092;28;20041;-57
2021/07/19 05:52:44;;;;;;;13.10;6.70;;;;;;;17.88;72.57;102198.63;5073144;28;20044;-59
2021/07/19 05:55:12;;;;;;;13.35;6.78;;;;;;;17.93;72.91;102191.44;5074016;28;20036;-56
2021/07/19 05:57:40;;;;;;;11.50;6.63;;;;;;;18.04;71.97;102193.84;5073075;28;20070;-57
2021/07/19 06:00:14;;;;;;;14.70;7.07;;;;;;;18.10;71.61;102192.69;5054677;28;20053;-57
2021/07/19 06:02:43;;;;;;;14.20;6.53;;;;;;;18.18;71.37;102185.75;5072414;28;20098;-57
2021/07/19 06:05:12;;;;;;;12.60;6.57;;;;;;;18.26;71.22;102182.41;5072418;28;20051;-57
2021/07/19 06:07:40;;;;;;;14.82;6.75;;;;;;;18.35;71.08;102190.06;5072723;28;20044;-57
2021/07/19 06:10:10;;;;;;;17.42;7.28;;;;;;;18.33;71.04;102186.75;5072289;28;20055;-57
2021/07/19 06:12:38;;;;;;;18.73;6.95;;;;;;;18.33;71.82;102192.28;5072674;28;20079;-58
2021/07/19 06:15:07;;;;;;;13.68;6.15;;;;;;;18.31;71.24;102201.69;5072401;28;20052;-56
2021/07/19 06:17:38;;;;;;;16.83;7.57;;;;;;;18.31;70.89;102196.16;5053744;28;20059;-57
2021/07/19 06:20:14;;;;;;;11.60;6.50;;;;;;;18.35;70.18;102199.19;5072446;28;20392;-55
2021/07/19 06:22:42;;;;;;;14.32;7.22;;;;;;;18.38;70.02;102206.06;5071660;28;20050;-50
2021/07/19 06:25:13;;;;;;;10.57;6.40;;;;;;;18.43;69.64;102206.03;5072394;28;20045;-54
2021/07/19 06:27:41;;;;;;;18.55;7.93;;;;;;;18.49;69.73;102204.84;5072138;28;20520;-50
2021/07/19 06:30:11;;;;;;;12.07;7.22;;;;;;;18.48;69.20;102205.97;5071960;28;20050;-55
2021/07/19 06:32:39;;;;;;;14.85;7.20;;;;;;;18.47;68.86;102201.56;5037773;28;20048;-55
2021/07/19 06:35:07;;;;;;;18.10;10.55;;;;;;;18.49;69.51;102207.63;5072247;28;20047;-55
2021/07/19 06:37:35;;;;;;;14.07;7.95;;;;;;;18.48;69.20;102203.22;5072252;28;20518;-52
2021/07/19 06:40:04;;;;;;;15.60;6.13;;;;;;;18.50;69.16;102190.78;5071812;28;20029;-52
2021/07/19 06:42:32;;;;;;;9.60;6.05;;;;;;;18.57;68.01;102184.94;5072097;28;20060;-55
2021/07/19 06:45:06;;;;;;;11.15;6.72;;;;;;;18.60;68.40;102192.63;5071596;28;20051;-54
2021/07/19 06:47:33;;;;;;;16.58;10.15;;;;;;;18.64;67.35;102192.84;5071895;28;20052;-50
2021/07/19 06:50:01;;;;;;;12.23;6.13;;;;;;;18.65;66.29;102203.63;5071667;28;20036;-52
2021/07/19 06:52:29;;;;;;;14.07;6.93;;;;;;;18.66;66.78;102196.97;5053711;28;20411;-52
2021/07/19 06:54:56;;;;;;;15.05;6.28;;;;;;;18.69;65.59;102199.19;5071573;28;20047;-50
2021/07/19 06:57:24;;;;;;;12.52;6.65;;;;;;;18.72;65.57;102198.59;5071862;28;20044;-52
2021/07/19 06:59:51;;;;;;;13.52;6.85;;;;;;;18.73;66.20;102199.41;5076034;28;20044;-51
2021/07/19 07:02:19;;;;;;;14.75;7.38;;;;;;;18.68;65.79;102211.31;5058240;28;20479;-52
2021/07/19 07:04:48;;;;;;;10.82;6.55;;;;;;;18.71;65.63;102219.03;5072062;28;20072;-50
2021/07/19 07:07:15;;;;;;;9.40;6.10;;;;;;;18.75;65.21;102213.75;5071463;28;20037;-51
2021/07/19 07:09:43;;;;;;;11.35;6.60;;;;;;;18.80;64.74;102210.16;5071662;28;20127;-51
2021/07/19 07:12:20;;;;;;;10.50;6.60;;;;;;;18.80;65.48;102212.91;5071910;28;20053;-49
2021/07/19 07:14:49;;;;;;;13.75;7.15;;;;;;;18.81;64.93;102207.13;5071218;28;20046;-57
2021/07/19 07:17:16;;;;;;;12.20;6.45;;;;;;;18.84;64.76;102203.78;5071677;28;20083;-56
2021/07/19 07:19:51;;;;;;;10.20;6.10;;;;;;;18.90;64.07;102201.78;5071585;28;20052;-50
2021/07/19 07:22:18;;;;;;;12.10;6.53;;;;;;;18.96;63.64;102197.88;5071753;28;20136;-52
2021/07/19 07:24:46;;;;;;;14.10;6.88;;;;;;;18.97;63.88;102216.06;5071412;28;20139;-51
2021/07/19 07:27:17;;;;;;;12.73;7.70;;;;;;;18.95;64.13;102223.81;5071489;28;20407;-53
2021/07/19 07:29:44;;;;;;;13.55;7.13;;;;;;;18.88;64.77;102224.19;5070878;28;20048;-52
2021/07/19 07:32:13;;;;;;;14.75;7.18;;;;;;;18.90;64.88;102213.63;5053322;28;20059;-48
2021/07/19 07:34:41;;;;;;;34.30;8.90;;;;;;;18.95;65.46;102223.81;5073872;28;20075;-51
2021/07/19 07:37:12;;;;;;;20.95;6.78;;;;;;;18.97;64.94;102216.06;5075433;28;20144;-50
2021/07/19 07:39:40;;;;;;;13.15;6.95;;;;;;;19.04;64.77;102211.03;5075005;28;20119;-50
2021/07/19 07:42:09;;;;;;;14.75;7.63;;;;;;;19.08;63.44;102211.28;5056973;28;20406;-57
2021/07/19 07:44:38;;;;;;;16.67;8.32;;;;;;;19.03;63.84;102206.63;5074637;28;20072;-57
2021/07/19 07:47:05;;;;;;;14.45;7.35;;;;;;;19.03;64.44;102209.38;5075500;28;20033;-57
2021/07/19 07:49:33;;;;;;;14.27;7.15;;;;;;;18.97;63.36;102204.19;5075395;28;20405;-57
2021/07/19 07:52:00;;;;;;;15.75;7.30;;;;;;;18.98;63.48;102206.69;5075028;28;20131;-58
2021/07/19 07:54:29;;;;;;;15.55;7.00;;;;;;;19.02;63.54;102204.97;5075053;28;20045;-57
2021/07/19 07:56:57;;;;;;;12.63;8.07;;;;;;;19.11;64.35;102210.69;5074615;28;20119;-58
2021/07/19 07:59:28;;;;;;;14.18;7.60;;;;;;;19.16;64.45;102211.44;5074663;28;20068;-53
2021/07/19 08:01:59;;;;;;;15.82;8.50;;;;;;;19.18;64.61;102207.59;5056646;28;20067;-52
2021/07/19 08:04:28;;;;;;;14.90;8.23;;;;;;;19.19;64.27;102204.50;5056972;28;20083;-56
2021/07/19 08:06:57;;;;;;;11.85;6.78;;;;;;;19.23;64.48;102207.53;5074879;28;20041;-57
2021/07/19 08:09:25;;;;;;;11.25;7.05;;;;;;;19.26;63.82;102213.28;5074948;28;20047;-57
2021/07/19 08:11:53;;;;;;;14.70;7.85;;;;;;;19.28;63.84;102204.72;5074981;28;20041;-57
2021/07/19 08:14:21;;;;;;;14.85;7.03;;;;;;;19.32;64.04;102211.31;5074292;28;20487;-57
2021/07/19 08:16:49;;;;;;;13.27;7.50;;;;;;;19.39;63.99;102213.72;5056547;28;20446;-58
2021/07/19 08:19:17;;;;;;;17.52;6.88;;;;;;;19.43;63.92;102203.72;5074666;28;20073;-57
2021/07/19 08:21:45;;;;;;;13.75;7.72;;;;;;;19.47;62.62;102207.53;5074639;28;20056;-58
2021/07/19 08:24:12;;;;;;;11.77;7.30;;;;;;;19.50;62.70;102202.22;5074645;28;20059;-57
2021/07/19 08:26:40;;;;;;;13.13;7.20;;;;;;;19.57;63.95;102205.47;5056291;28;20043;-53
2021/07/19 08:29:07;;;;;;;14.63;7.68;;;;;;;19.62;62.76;102209.28;5074324;28;20076;-53
2021/07/19 08:31:35;;;;;;;13.48;7.88;;;;;;;19.65;62.49;102190.19;5055514;28;20056;-56
2021/07/19 08:34:04;;;;;;;12.95;7.82;;;;;;;19.71;62.35;102190.97;5074493;28;20048;-57
2021/07/19 08:36:32;;;;;;;13.00;8.27;;;;;;;19.75;61.98;102192.03;5074045;28;20541;-57
2021/07/19 08:38:59;;;;;;;14.10;8.88;;;;;;;19.76;61.03;102199.19;5056699;28;20055;-56
2021/07/19 08:41:27;;;;;;;15.40;9.18;;;;;;;19.75;61.18;102203.09;5074087;28;20049;-57
2021/07/19 08:43:57;;;;;;;13.60;8.20;;;;;;;19.75;60.65;102197.56;5056231;28;20047;-58
2021/07/19 08:46:24;;;;;;;18.42;9.85;;;;;;;19.71;59.91;102202.03;5072999;28;20044;-59
2021/07/19 08:48:52;;;;;;;16.33;9.02;;;;;;;19.63;60.02;102199.91;5039628;28;20059;-57
2021/07/19 08:51:21;;;;;;;15.23;8.57;;;;;;;19.58;59.94;102192.47;5074168;28;20118;-58
2021/07/19 08:53:49;;;;;;;15.65;9.45;;;;;;;19.55;61.13;102199.44;5074358;28;20048;-60
2021/07/19 08:56:16;;;;;;;14.88;9.10;;;;;;;19.56;61.07;102195.53;5056120;28;20128;-58
2021/07/19 08:58:44;;;;;;;16.00;9.15;;;;;;;19.62;60.86;102192.69;5073874;28;20391;-58
2021/07/19 09:01:12;;;;;;;13.30;8.23;;;;;;;19.65;61.51;102192.94;5056483;28;20051;-60
2021/07/19 09:03:41;;;;;;;15.70;10.13;;;;;;;19.68;60.57;102191.56;5073697;28;20040;-58
2021/07/19 09:06:11;;;;;;;17.42;9.20;;;;;;;19.71;60.66;102190.97;5073771;28;20510;-58
2021/07/19 09:08:53;;;;;;;15.27;10.25;;;;;;;19.75;60.66;102192.03;5055984;28;20044;-57
2021/07/19 09:11:22;;;;;;;18.67;10.40;;;;;;;19.78;60.48;102194.19;5059828;28;20545;-55
2021/07/19 09:13:58;;;;;;;14.05;8.35;;;;;;;19.81;60.52;102190.81;5073859;28;20040;-56
2021/07/19 09:16:27;;;;;;;14.45;9.77;;;;;;;19.86;60.33;102189.94;5073383;28;20049;-58
2021/07/19 09:19:09;;;;;;;14.60;9.93;;;;;;;19.85;59.87;102191.88;5073186;28;20065;-57
2021/07/19 09:21:38;;;;;;;16.70;9.75;;;;;;;19.84;59.91;102195.75;5060931;28;20597;-58
2021/07/19 09:24:14;;;;;;;19.10;10.18;;;;;;;19.86;60.27;102192.69;5073063;28;20598;-58
2021/07/19 09:26:42;;;;;;;;;;;;;;;19.90;60.48;102189.03;5073964;28;20052;-58
2021/07/19 09:29:12;;;;;;;16.00;10.50;;;;;;;19.89;60.10;102183.78;5073460;28;19928;-57
2021/07/19 09:31:44;;;;;;;16.08;10.27;;;;;;;19.89;60.38;102176.34;5073258;28;20055;-59
2021/07/19 09:34:20;;;;;;;14.98;9.60;;;;;;;19.95;60.99;102186.19;5073371;28;20076;-58
2021/07/19 09:37:09;;;;;;;15.07;9.20;;;;;;;20.00;60.08;102180.59;5073208;28;20041;-58
2021/07/19 09:39:46;;;;;;;15.43;9.48;;;;;;;19.96;59.98;102192.53;5072437;28;20490;-58
2021/07/19 09:42:22;;;;;;;18.73;10.48;;;;;;;19.94;60.91;102179.03;5073044;28;20483;-58
2021/07/19 09:44:57;;;;;;;15.82;8.30;;;;;;;19.99;60.68;102175.38;5067576;28;20040;-58
2021/07/19 09:47:40;;;;;;;15.02;9.63;;;;;;;20.07;60.24;102182.16;5072238;28;20383;-56
2021/07/19 09:50:13;;;;;;;15.50;9.73;;;;;;;20.15;60.38;102173.19;5069275;28;20028;-58
2021/07/19 09:52:41;;;;;;;15.93;9.25;;;;;;;20.19;59.38;102165.94;5073263;28;20102;-59
2021/07/19 09:55:22;;;;;;;14.15;8.88;;;;;;;20.20;59.99;102167.56;5072215;28;20049;-59
2021/07/19 09:57:54;;;;;;;15.10;9.40;;;;;;;20.15;60.16;102167.66;5072880;28;20051;-57
2021/07/19 10:00:23;;;;;;;17.67;10.00;;;;;;;20.07;59.66;102166.38;5072456;28;20525;-59
2021/07/19 10:02:51;;;;;;;21.60;9.43;;;;;;;20.02;60.77;102157.34;5072684;28;20040;-59
2021/07/19 10:05:29;;;;;;;14.57;9.20;;;;;;;20.03;61.01;102159.78;5072562;28;20513;-57
2021/07/19 10:08:01;;;;;;;15.88;8.88;;;;;;;20.08;60.37;102161.66;5059008;28;20044;-56
2021/07/19 10:10:33;;;;;;;14.52;8.85;;;;;;;20.17;60.15;102162.63;5072273;28;20068;-58
2021/07/19 10:13:02;;;;;;;14.70;9.98;;;;;;;20.20;60.41;102165.63;5072377;28;20119;-59
2021/07/19 10:15:31;;;;;;;13.73;9.32;;;;;;;20.23;60.22;102158.69;5072100;28;20048;-60
2021/07/19 10:18:02;;;;;;;15.82;10.73;;;;;;;20.27;60.10;102154.16;5072217;28;20044;-60
2021/07/19 10:20:30;;;;;;;14.27;8.88;;;;;;;20.25;60.11;102159.19;5072698;28;20041;-55
2021/07/19 10:22:57;;;;;;;16.58;9.25;;;;;;;20.27;59.96;102158.88;5072232;28;20399;-59
2021/07/19 10:25:25;;;;;;;16.70;9.10;;;;;;;20.27;60.65;102158.88;5054603;28;20045;-57
2021/07/19 10:27:53;;;;;;;13.93;9.10;;;;;;;20.17;59.96;102148.81;5072023;28;20111;-57
2021/07/19 10:30:21;;;;;;;14.77;8.75;;;;;;;20.21;59.73;102149.84;5072244;28;20089;-57
2021/07/19 10:32:49;;;;;;;12.43;8.00;;;;;;;20.32;59.77;102151.31;5071709;28;20513;-56
2021/07/19 10:35:19;;;;;;;15.50;9.18;;;;;;;20.42;59.06;102145.63;5071440;28;20043;-56
2021/07/19 10:38:02;;;;;;;13.98;8.93;;;;;;;20.48;58.80;102138.03;5071009;28;20043;-58
2021/07/19 10:40:32;;;;;;;14.60;8.65;;;;;;;20.52;58.71;102143.81;5071980;28;20039;-59
2021/07/19 10:43:07;;;;;;;15.40;9.15;;;;;;;20.50;59.08;102144.09;5072000;28;20039;-58
2021/07/19 10:45:48;;;;;;;15.80;9.00;;;;;;;20.43;58.60;102140.91;5072098;28;20045;-58
2021/07/19 10:48:26;;;;;;;13.93;8.98;;;;;;;20.41;58.73;102155.03;5071944;28;20403;-57
2021/07/19 10:50:56;;;;;;;15.52;8.18;;;;;;;20.38;58.89;102150.13;5071835;28;20043;-57
2021/07/19 10:53:27;;;;;;;15.75;9.05;;;;;;;20.42;58.89;102153.94;5071767;28;20051;-58
2021/07/19 10:55:59;;;;;;;11.68;7.65;;;;;;;20.53;58.97;102145.44;5054054;28;20050;-59
2021/07/19 10:58:36;;;;;;;12.65;8.45;;;;;;;20.59;59.77;102144.28;5071668;28;20037;-58
2021/07/19 11:01:04;;;;;;;13.45;8.30;;;;;;;20.62;59.44;102138.94;5072018;28;20045;-58
2021/07/19 11:03:39;;;;;;;16.23;9.07;;;;;;;20.64;59.06;102133.91;5071853;28;20486;-56
2021/07/19 11:06:07;;;;;;;15.60;8.33;;;;;;;20.65;58.94;102137.50;5053608;28;20403;-59
2021/07/19 11:08:49;;;;;;;15.60;9.30;;;;;;;20.66;59.43;102133.63;5073466;28;20136;-57
2021/07/19 11:11:30;;;;;;;17.13;9.45;;;;;;;20.63;60.20;102128.69;5078581;28;20037;-51
2021/07/19 11:14:02;;;;;;;16.05;8.93;;;;;;;20.64;59.83;102133.09;5078350;28;20036;-54
2021/07/19 11:16:47;;;;;;;15.77;9.02;;;;;;;20.63;58.54;102134.22;5078081;28;20048;-55
2021/07/19 11:19:15;;;;;;;15.55;8.93;;;;;;;20.55;58.25;102127.44;5077882;28;20059;-53
2021/07/19 11:21:44;;;;;;;14.57;8.25;;;;;;;20.55;58.38;102132.13;5078141;28;20040;-55
2021/07/19 11:24:17;;;;;;;13.30;7.90;;;;;;;20.56;58.96;102122.72;5078122;28;20048;-55
2021/07/19 11:26:57;;;;;;;15.05;8.35;;;;;;;20.62;58.85;102127.03;5078734;28;20057;-58
2021/07/19 11:29:27;;;;;;;16.20;9.68;;;;;;;20.59;58.96;102122.13;5078606;28;20055;-57
2021/07/19 11:32:05;;;;;;;18.98;9.88;;;;;;;20.67;59.46;102123.38;5061092;28;20076;-56
2021/07/19 11:34:34;;;;;;;15.85;8.68;;;;;;;20.77;57.18;102125.94;5078735;28;20044;-54
2021/07/19 11:37:03;;;;;;;14.75;9.27;;;;;;;20.89;56.05;102119.91;5078675;28;20143;-59